Terminal Aerodrome Forecast
Issued by NWS Jackson, KY

Home | Current Version | Previous Version | Text Only | Print | Product List | Glossary On
Versions: 1 2 3 4 5 6 7 8 9 10 11 12 13 14 15 16 17 18 19
000
FTUS43 KJKL 211700
TAFLOZ
TAF
KLOZ 211738Z 2118/2218 VRB03KT P6SM SCT035
     FM220500 VRB03KT 4SM BR SCT250
     FM220800 00000KT 1/2SM FG SCT001=

USA.gov is the U.S. government's official web portal to all federal, state and local government web resources and services.